createdAt,value
2018-09-14T00:08:45.611Z,57.30
2018-09-14T00:18:50.231Z,57.30
2018-09-14T00:28:54.887Z,57.20
2018-09-14T00:38:59.656Z,57.30
2018-09-14T00:49:04.513Z,57.30
2018-09-14T00:59:09.227Z,57.40
2018-09-14T01:09:19.200Z,57.30
2018-09-14T01:19:23.915Z,57.20
2018-09-14T01:29:28.737Z,57.20
2018-09-14T01:39:33.376Z,57.50
2018-09-14T01:49:38.233Z,57.30
2018-09-14T01:59:42.954Z,57.30
2018-09-14T02:09:47.720Z,57.20
2018-09-14T02:19:52.295Z,57.30
2018-09-14T02:29:57.124Z,57.30
2018-09-14T02:40:02.104Z,57.90
2018-09-14T02:50:06.703Z,57.30
2018-09-14T03:00:11.647Z,57.30
2018-09-14T03:10:16.348Z,57.40
2018-09-14T03:20:20.976Z,57.30
2018-09-14T03:30:25.653Z,57.40
2018-09-14T03:40:30.497Z,57.40
2018-09-14T03:50:35.193Z,57.50
2018-09-14T04:00:40.026Z,57.50
2018-09-14T04:10:44.653Z,57.40
2018-09-14T04:20:49.335Z,57.50
2018-09-14T04:30:53.906Z,57.40
2018-09-14T04:40:58.624Z,57.70
2018-09-14T04:51:03.339Z,57.50
2018-09-14T05:01:07.954Z,57.50
2018-09-14T05:11:12.569Z,57.50
2018-09-14T05:21:17.415Z,57.60
2018-09-14T05:31:21.968Z,57.60
2018-09-14T05:41:26.860Z,57.70
2018-09-14T05:51:32.626Z,57.60
2018-09-14T06:01:37.478Z,57.70
2018-09-14T06:11:42.743Z,57.60
2018-09-14T06:21:47.500Z,57.60
2018-09-14T06:31:52.302Z,57.50
2018-09-14T06:41:57.122Z,57.60
2018-09-14T06:52:03.083Z,57.60
2018-09-14T07:02:07.954Z,57.60
2018-09-14T07:12:12.612Z,57.70
2018-09-14T07:22:17.404Z,57.60
2018-09-14T07:32:22.132Z,57.70
2018-09-14T07:42:26.901Z,57.70
2018-09-14T07:52:31.597Z,57.70
2018-09-14T08:02:36.173Z,57.70
2018-09-14T08:12:40.811Z,57.70
2018-09-14T08:22:45.413Z,57.70
2018-09-14T08:32:50.156Z,57.70
2018-09-14T08:42:55.005Z,57.80
2018-09-14T08:53:00.748Z,57.90
2018-09-14T09:03:05.755Z,57.70
2018-09-14T09:13:10.335Z,57.90
2018-09-14T09:23:14.880Z,57.80
2018-09-14T09:33:19.618Z,57.70
2018-09-14T09:43:24.305Z,58.40
2018-09-14T09:53:28.987Z,57.80
2018-09-14T10:03:38.712Z,57.70
2018-09-14T10:13:43.532Z,57.70
2018-09-14T10:23:48.392Z,57.70
2018-09-14T10:33:53.260Z,57.70
2018-09-14T10:43:57.910Z,57.70
2018-09-14T10:54:02.577Z,57.70
2018-09-14T11:04:07.598Z,57.70
2018-09-14T11:14:12.604Z,57.90
2018-09-14T11:24:17.414Z,57.90
2018-09-14T11:34:22.086Z,57.80
2018-09-14T11:44:26.816Z,57.80
2018-09-14T11:54:31.513Z,57.80
2018-09-14T12:04:36.275Z,57.80
2018-09-14T12:14:41.057Z,57.90
2018-09-14T12:24:45.609Z,57.90
2018-09-14T12:34:51.415Z,57.90
2018-09-14T12:44:56.093Z,58.00
2018-09-14T12:55:00.932Z,58.00
2018-09-14T13:05:05.940Z,58.00
2018-09-14T13:15:10.696Z,58.00
2018-09-14T13:25:15.405Z,58.10
2018-09-14T13:35:21.388Z,58.00
2018-09-14T13:45:26.021Z,58.00
2018-09-14T13:55:30.944Z,58.00
2018-09-14T14:05:35.840Z,58.00
2018-09-14T14:15:40.450Z,58.00
2018-09-14T14:25:45.241Z,58.10
2018-09-14T14:35:49.940Z,58.50
2018-09-14T14:45:54.638Z,58.10
2018-09-14T14:55:59.303Z,58.00
2018-09-14T15:06:04.049Z,58.00
2018-09-14T15:16:08.766Z,57.40
2018-09-14T15:26:14.600Z,58.10
2018-09-14T15:36:19.295Z,58.10
2018-09-14T15:46:24.041Z,58.00
2018-09-14T15:56:28.834Z,58.00
2018-09-14T16:06:33.564Z,58.00
2018-09-14T16:16:39.296Z,58.00
2018-09-14T16:26:44.207Z,58.00
2018-09-14T16:36:49.786Z,58.00
2018-09-14T16:46:54.542Z,58.00
2018-09-14T16:57:00.107Z,58.00
2018-09-14T17:07:05.812Z,58.00
2018-09-14T17:17:10.495Z,58.10
2018-09-14T17:27:15.201Z,58.00
2018-09-14T17:37:20.029Z,58.00
2018-09-14T17:47:25.143Z,58.00
2018-09-14T17:57:31.198Z,58.00
2018-09-14T18:07:36.333Z,58.00
2018-09-14T18:17:41.009Z,58.00
2018-09-14T18:27:47.828Z,58.00
2018-09-14T18:37:52.413Z,58.00
2018-09-14T18:47:57.075Z,58.00
2018-09-14T18:58:01.744Z,58.00
2018-09-14T19:08:06.364Z,58.00
2018-09-14T19:18:11.057Z,58.10
2018-09-14T19:28:15.963Z,58.00
2018-09-14T19:38:20.634Z,58.00
2018-09-14T19:48:25.359Z,58.00
2018-09-14T19:58:30.081Z,58.00
2018-09-14T20:08:34.878Z,58.10
2018-09-14T20:18:39.722Z,58.10
2018-09-14T20:28:44.297Z,58.00
2018-09-14T20:38:49.093Z,58.00
2018-09-14T20:48:54.746Z,58.10
2018-09-14T20:58:59.640Z,58.10
2018-09-14T21:09:05.902Z,58.00
2018-09-14T21:19:10.479Z,58.00
2018-09-14T21:29:15.199Z,58.00
2018-09-14T21:39:19.939Z,58.00
2018-09-14T21:49:24.624Z,58.00
2018-09-14T21:59:29.325Z,58.00
2018-09-14T22:09:33.876Z,58.00
2018-09-14T22:19:38.512Z,58.00
2018-09-14T22:29:43.332Z,57.90
2018-09-14T22:39:47.921Z,58.00
2018-09-14T22:49:52.739Z,58.00
2018-09-14T22:59:57.331Z,58.00
2018-09-14T23:10:02.148Z,58.00
2018-09-14T23:20:07.080Z,57.90
2018-09-14T23:30:11.625Z,58.00
2018-09-14T23:40:16.285Z,58.00
2018-09-14T23:50:20.849Z,58.00
